sensor_id;sensor_type;location;lat;lon;timestamp;temperature;humidity
72380;SHT30;60354;47.798;12.472;2023-06-05T00:00:43;16.51;82.08
72380;SHT30;60354;47.798;12.472;2023-06-05T00:03:08;16.56;81.96
72380;SHT30;60354;47.798;12.472;2023-06-05T00:05:34;16.61;81.53
72380;SHT30;60354;47.798;12.472;2023-06-05T00:07:59;16.66;81.48
72380;SHT30;60354;47.798;12.472;2023-06-05T00:10:25;16.71;81.38
72380;SHT30;60354;47.798;12.472;2023-06-05T00:12:50;16.78;81.22
72380;SHT30;60354;47.798;12.472;2023-06-05T00:15:16;16.76;81.11
72380;SHT30;60354;47.798;12.472;2023-06-05T00:17:41;16.83;80.58
72380;SHT30;60354;47.798;12.472;2023-06-05T00:20:08;16.89;80.03
72380;SHT30;60354;47.798;12.472;2023-06-05T00:22:36;16.93;79.35
72380;SHT30;60354;47.798;12.472;2023-06-05T00:25:03;16.96;79.68
72380;SHT30;60354;47.798;12.472;2023-06-05T00:27:28;16.97;80.14
72380;SHT30;60354;47.798;12.472;2023-06-05T00:29:54;16.95;80.38
72380;SHT30;60354;47.798;12.472;2023-06-05T00:32:20;16.86;80.63
72380;SHT30;60354;47.798;12.472;2023-06-05T00:34:45;16.87;81.03
72380;SHT30;60354;47.798;12.472;2023-06-05T00:37:12;16.78;81.38
72380;SHT30;60354;47.798;12.472;2023-06-05T00:39:40;16.80;80.47
72380;SHT30;60354;47.798;12.472;2023-06-05T00:42:07;16.86;80.83
72380;SHT30;60354;47.798;12.472;2023-06-05T00:44:34;16.92;80.80
72380;SHT30;60354;47.798;12.472;2023-06-05T00:47:00;16.93;81.04
72380;SHT30;60354;47.798;12.472;2023-06-05T00:49:28;16.86;81.55
72380;SHT30;60354;47.798;12.472;2023-06-05T00:51:53;16.85;81.21
72380;SHT30;60354;47.798;12.472;2023-06-05T00:54:19;16.86;80.78
72380;SHT30;60354;47.798;12.472;2023-06-05T00:56:46;16.85;81.01
72380;SHT30;60354;47.798;12.472;2023-06-05T00:59:12;16.95;80.61
72380;SHT30;60354;47.798;12.472;2023-06-05T01:01:39;16.96;80.72
72380;SHT30;60354;47.798;12.472;2023-06-05T01:04:05;16.89;80.58
72380;SHT30;60354;47.798;12.472;2023-06-05T01:06:31;16.83;80.35
72380;SHT30;60354;47.798;12.472;2023-06-05T01:09:00;16.83;80.37
72380;SHT30;60354;47.798;12.472;2023-06-05T01:11:47;16.76;80.30
72380;SHT30;60354;47.798;12.472;2023-06-05T01:14:24;16.66;80.23
72380;SHT30;60354;47.798;12.472;2023-06-05T01:16:53;16.61;80.26
72380;SHT30;60354;47.798;12.472;2023-06-05T01:19:20;16.56;80.45
72380;SHT30;60354;47.798;12.472;2023-06-05T01:21:47;16.64;79.96
72380;SHT30;60354;47.798;12.472;2023-06-05T01:24:12;16.59;80.00
72380;SHT30;60354;47.798;12.472;2023-06-05T01:26:55;16.52;80.16
72380;SHT30;60354;47.798;12.472;2023-06-05T01:32:56;16.55;80.32
72380;SHT30;60354;47.798;12.472;2023-06-05T01:35:23;16.52;80.41
72380;SHT30;60354;47.798;12.472;2023-06-05T01:37:54;16.48;80.53
72380;SHT30;60354;47.798;12.472;2023-06-05T01:40:22;16.44;81.06
72380;SHT30;60354;47.798;12.472;2023-06-05T01:42:50;16.41;81.30
72380;SHT30;60354;47.798;12.472;2023-06-05T01:45:16;16.41;81.37
72380;SHT30;60354;47.798;12.472;2023-06-05T01:47:44;16.37;81.26
72380;SHT30;60354;47.798;12.472;2023-06-05T01:50:13;16.44;81.21
72380;SHT30;60354;47.798;12.472;2023-06-05T01:52:43;16.44;81.47
72380;SHT30;60354;47.798;12.472;2023-06-05T01:55:15;16.38;81.71
72380;SHT30;60354;47.798;12.472;2023-06-05T01:57:42;16.35;81.22
72380;SHT30;60354;47.798;12.472;2023-06-05T02:00:09;16.37;81.18
72380;SHT30;60354;47.798;12.472;2023-06-05T02:02:39;16.34;81.46
72380;SHT30;60354;47.798;12.472;2023-06-05T02:05:11;16.38;81.51
72380;SHT30;60354;47.798;12.472;2023-06-05T02:07:43;16.32;81.95
72380;SHT30;60354;47.798;12.472;2023-06-05T02:10:09;16.38;81.84
72380;SHT30;60354;47.798;12.472;2023-06-05T02:12:36;16.32;81.97
72380;SHT30;60354;47.798;12.472;2023-06-05T02:15:07;16.31;82.06
72380;SHT30;60354;47.798;12.472;2023-06-05T02:17:33;16.32;82.03
72380;SHT30;60354;47.798;12.472;2023-06-05T02:20:00;16.44;81.30
72380;SHT30;60354;47.798;12.472;2023-06-05T02:22:25;16.34;81.00
72380;SHT30;60354;47.798;12.472;2023-06-05T02:24:51;16.44;80.57
72380;SHT30;60354;47.798;12.472;2023-06-05T02:27:19;16.38;80.93
72380;SHT30;60354;47.798;12.472;2023-06-05T02:29:45;16.47;80.76
72380;SHT30;60354;47.798;12.472;2023-06-05T02:32:11;16.45;80.67
72380;SHT30;60354;47.798;12.472;2023-06-05T02:34:37;16.45;80.45
72380;SHT30;60354;47.798;12.472;2023-06-05T02:37:03;16.45;80.54
72380;SHT30;60354;47.798;12.472;2023-06-05T02:39:29;16.48;80.47
72380;SHT30;60354;47.798;12.472;2023-06-05T02:41:57;16.34;81.19
72380;SHT30;60354;47.798;12.472;2023-06-05T02:44:23;16.38;81.20
72380;SHT30;60354;47.798;12.472;2023-06-05T02:46:48;16.35;81.51
72380;SHT30;60354;47.798;12.472;2023-06-05T02:49:14;16.27;81.96
72380;SHT30;60354;47.798;12.472;2023-06-05T02:51:40;16.25;81.82
72380;SHT30;60354;47.798;12.472;2023-06-05T02:54:05;16.28;82.19
72380;SHT30;60354;47.798;12.472;2023-06-05T02:56:31;16.25;82.40
72380;SHT30;60354;47.798;12.472;2023-06-05T02:58:57;16.18;82.97
72380;SHT30;60354;47.798;12.472;2023-06-05T03:01:24;16.21;82.83
72380;SHT30;60354;47.798;12.472;2023-06-05T03:03:51;16.27;82.54
72380;SHT30;60354;47.798;12.472;2023-06-05T03:06:18;16.28;82.21
72380;SHT30;60354;47.798;12.472;2023-06-05T03:08:46;16.31;82.09
72380;SHT30;60354;47.798;12.472;2023-06-05T03:11:16;16.27;82.16
72380;SHT30;60354;47.798;12.472;2023-06-05T03:13:42;16.22;82.24
72380;SHT30;60354;47.798;12.472;2023-06-05T03:16:08;16.29;82.02
72380;SHT30;60354;47.798;12.472;2023-06-05T03:18:37;16.24;82.46
72380;SHT30;60354;47.798;12.472;2023-06-05T03:21:03;16.22;82.67
72380;SHT30;60354;47.798;12.472;2023-06-05T03:23:29;16.22;82.98
72380;SHT30;60354;47.798;12.472;2023-06-05T03:25:58;16.21;83.33
72380;SHT30;60354;47.798;12.472;2023-06-05T03:28:24;16.21;83.01
72380;SHT30;60354;47.798;12.472;2023-06-05T03:30:52;16.14;83.50
72380;SHT30;60354;47.798;12.472;2023-06-05T03:33:20;16.14;82.86
72380;SHT30;60354;47.798;12.472;2023-06-05T03:35:48;16.20;82.85
72380;SHT30;60354;47.798;12.472;2023-06-05T03:38:15;16.24;82.40
72380;SHT30;60354;47.798;12.472;2023-06-05T03:40:41;16.28;82.56
72380;SHT30;60354;47.798;12.472;2023-06-05T03:43:10;16.31;82.52
72380;SHT30;60354;47.798;12.472;2023-06-05T03:45:37;16.29;82.54
72380;SHT30;60354;47.798;12.472;2023-06-05T03:48:06;16.25;82.29
72380;SHT30;60354;47.798;12.472;2023-06-05T03:50:36;16.32;82.18
72380;SHT30;60354;47.798;12.472;2023-06-05T03:53:06;16.32;82.18
72380;SHT30;60354;47.798;12.472;2023-06-05T03:55:34;16.29;82.35
72380;SHT30;60354;47.798;12.472;2023-06-05T03:58:10;16.28;82.36
72380;SHT30;60354;47.798;12.472;2023-06-05T04:00:43;16.35;81.91
72380;SHT30;60354;47.798;12.472;2023-06-05T04:03:12;16.27;82.27
72380;SHT30;60354;47.798;12.472;2023-06-05T04:05:39;16.24;82.05
72380;SHT30;60354;47.798;12.472;2023-06-05T04:08:06;16.16;82.12
72380;SHT30;60354;47.798;12.472;2023-06-05T04:10:33;16.14;82.08
72380;SHT30;60354;47.798;12.472;2023-06-05T04:12:59;16.17;81.86
72380;SHT30;60354;47.798;12.472;2023-06-05T04:15:25;16.18;81.61
72380;SHT30;60354;47.798;12.472;2023-06-05T04:17:51;16.20;81.90
72380;SHT30;60354;47.798;12.472;2023-06-05T04:20:17;16.16;81.84
72380;SHT30;60354;47.798;12.472;2023-06-05T04:22:44;16.24;81.58
72380;SHT30;60354;47.798;12.472;2023-06-05T04:25:14;16.27;81.86
72380;SHT30;60354;47.798;12.472;2023-06-05T04:27:43;16.22;81.93
72380;SHT30;60354;47.798;12.472;2023-06-05T04:30:10;16.22;82.14
72380;SHT30;60354;47.798;12.472;2023-06-05T04:32:37;16.20;81.94
72380;SHT30;60354;47.798;12.472;2023-06-05T04:35:07;16.28;81.58
72380;SHT30;60354;47.798;12.472;2023-06-05T04:37:37;16.27;81.48
72380;SHT30;60354;47.798;12.472;2023-06-05T04:40:04;16.32;81.46
72380;SHT30;60354;47.798;12.472;2023-06-05T04:42:38;16.40;80.73
72380;SHT30;60354;47.798;12.472;2023-06-05T04:45:06;16.47;80.91
72380;SHT30;60354;47.798;12.472;2023-06-05T04:47:35;16.49;81.21
72380;SHT30;60354;47.798;12.472;2023-06-05T04:50:03;16.44;81.03
72380;SHT30;60354;47.798;12.472;2023-06-05T04:52:33;16.47;81.26
72380;SHT30;60354;47.798;12.472;2023-06-05T04:55:01;16.44;81.10
72380;SHT30;60354;47.798;12.472;2023-06-05T04:57:28;16.47;81.13
72380;SHT30;60354;47.798;12.472;2023-06-05T04:59:55;16.51;80.84
72380;SHT30;60354;47.798;12.472;2023-06-05T05:02:23;16.56;80.36
72380;SHT30;60354;47.798;12.472;2023-06-05T05:04:48;16.59;80.82
72380;SHT30;60354;47.798;12.472;2023-06-05T05:07:15;16.61;80.53
72380;SHT30;60354;47.798;12.472;2023-06-05T05:09:43;16.59;81.12
72380;SHT30;60354;47.798;12.472;2023-06-05T05:12:09;16.62;80.84
72380;SHT30;60354;47.798;12.472;2023-06-05T05:14:35;16.58;81.07
72380;SHT30;60354;47.798;12.472;2023-06-05T05:17:02;16.61;80.89
72380;SHT30;60354;47.798;12.472;2023-06-05T05:19:28;16.51;80.72
72380;SHT30;60354;47.798;12.472;2023-06-05T05:21:57;16.59;80.71
72380;SHT30;60354;47.798;12.472;2023-06-05T05:24:22;16.65;80.64
72380;SHT30;60354;47.798;12.472;2023-06-05T05:26:51;16.64;80.39
72380;SHT30;60354;47.798;12.472;2023-06-05T05:29:17;16.72;79.98
72380;SHT30;60354;47.798;12.472;2023-06-05T05:31:44;16.78;79.84
72380;SHT30;60354;47.798;12.472;2023-06-05T05:34:10;16.80;79.80
72380;SHT30;60354;47.798;12.472;2023-06-05T05:36:35;16.85;79.69
72380;SHT30;60354;47.798;12.472;2023-06-05T05:39:04;16.82;79.51
72380;SHT30;60354;47.798;12.472;2023-06-05T05:41:31;16.71;79.82
72380;SHT30;60354;47.798;12.472;2023-06-05T05:43:56;16.78;79.62
72380;SHT30;60354;47.798;12.472;2023-06-05T05:46:22;16.89;79.32
72380;SHT30;60354;47.798;12.472;2023-06-05T05:48:47;17.00;79.09
72380;SHT30;60354;47.798;12.472;2023-06-05T05:51:13;17.09;79.49
72380;SHT30;60354;47.798;12.472;2023-06-05T05:53:38;17.22;78.97
72380;SHT30;60354;47.798;12.472;2023-06-05T05:56:04;17.33;78.71
72380;SHT30;60354;47.798;12.472;2023-06-05T05:58:30;17.34;78.95
72380;SHT30;60354;47.798;12.472;2023-06-05T06:00:56;17.28;78.37
72380;SHT30;60354;47.798;12.472;2023-06-05T06:03:22;17.34;79.25
72380;SHT30;60354;47.798;12.472;2023-06-05T06:05:48;17.27;78.78
72380;SHT30;60354;47.798;12.472;2023-06-05T06:08:14;17.31;78.55
72380;SHT30;60354;47.798;12.472;2023-06-05T06:10:40;17.37;78.54
72380;SHT30;60354;47.798;12.472;2023-06-05T06:13:06;17.43;78.65
72380;SHT30;60354;47.798;12.472;2023-06-05T06:15:32;17.40;78.08
72380;SHT30;60354;47.798;12.472;2023-06-05T06:17:57;17.47;77.64
72380;SHT30;60354;47.798;12.472;2023-06-05T06:20:25;17.54;77.31
72380;SHT30;60354;47.798;12.472;2023-06-05T06:22:50;17.61;77.34
72380;SHT30;60354;47.798;12.472;2023-06-05T06:25:17;17.67;76.85
72380;SHT30;60354;47.798;12.472;2023-06-05T06:27:43;17.68;77.61
72380;SHT30;60354;47.798;12.472;2023-06-05T06:30:11;17.75;76.71
72380;SHT30;60354;47.798;12.472;2023-06-05T06:32:37;17.78;76.54
72380;SHT30;60354;47.798;12.472;2023-06-05T06:35:03;17.84;77.38
72380;SHT30;60354;47.798;12.472;2023-06-05T06:37:29;17.87;76.47
72380;SHT30;60354;47.798;12.472;2023-06-05T06:39:54;17.97;76.68
72380;SHT30;60354;47.798;12.472;2023-06-05T06:42:20;17.89;76.73
72380;SHT30;60354;47.798;12.472;2023-06-05T06:44:59;17.91;76.52
72380;SHT30;60354;47.798;12.472;2023-06-05T06:47:24;18.12;76.86
72380;SHT30;60354;47.798;12.472;2023-06-05T06:49:50;18.42;75.96
72380;SHT30;60354;47.798;12.472;2023-06-05T06:52:16;18.55;74.88
72380;SHT30;60354;47.798;12.472;2023-06-05T06:54:44;18.86;74.74
72380;SHT30;60354;47.798;12.472;2023-06-05T06:57:09;18.96;74.52
72380;SHT30;60354;47.798;12.472;2023-06-05T06:59:35;19.14;73.62
72380;SHT30;60354;47.798;12.472;2023-06-05T07:04:39;19.27;73.27
72380;SHT30;60354;47.798;12.472;2023-06-05T07:07:11;19.35;73.49
72380;SHT30;60354;47.798;12.472;2023-06-05T07:09:38;19.32;73.22
72380;SHT30;60354;47.798;12.472;2023-06-05T07:12:04;19.10;73.66
72380;SHT30;60354;47.798;12.472;2023-06-05T07:14:32;19.14;73.68
72380;SHT30;60354;47.798;12.472;2023-06-05T07:17:01;18.98;74.09
72380;SHT30;60354;47.798;12.472;2023-06-05T07:19:28;18.68;74.37
72380;SHT30;60354;47.798;12.472;2023-06-05T07:21:57;18.94;74.07
72380;SHT30;60354;47.798;12.472;2023-06-05T07:24:24;19.35;73.58
72380;SHT30;60354;47.798;12.472;2023-06-05T07:26:58;19.56;73.86
72380;SHT30;60354;47.798;12.472;2023-06-05T07:29:24;19.56;73.06
72380;SHT30;60354;47.798;12.472;2023-06-05T07:31:55;19.01;75.21
72380;SHT30;60354;47.798;12.472;2023-06-05T07:34:22;18.71;76.08
72380;SHT30;60354;47.798;12.472;2023-06-05T07:36:49;18.78;75.86
72380;SHT30;60354;47.798;12.472;2023-06-05T07:39:16;18.56;76.82
72380;SHT30;60354;47.798;12.472;2023-06-05T07:41:42;18.66;76.86
72380;SHT30;60354;47.798;12.472;2023-06-05T07:44:09;18.43;77.17
72380;SHT30;60354;47.798;12.472;2023-06-05T07:46:35;18.55;77.04
72380;SHT30;60354;47.798;12.472;2023-06-05T07:49:01;18.49;76.79
72380;SHT30;60354;47.798;12.472;2023-06-05T07:51:26;18.47;76.84
72380;SHT30;60354;47.798;12.472;2023-06-05T07:53:52;18.45;76.83
72380;SHT30;60354;47.798;12.472;2023-06-05T07:56:17;18.57;76.69
72380;SHT30;60354;47.798;12.472;2023-06-05T07:58:43;18.55;77.19
72380;SHT30;60354;47.798;12.472;2023-06-05T08:01:10;18.71;77.76
72380;SHT30;60354;47.798;12.472;2023-06-05T08:03:37;18.78;77.32
72380;SHT30;60354;47.798;12.472;2023-06-05T08:06:03;18.74;77.44
72380;SHT30;60354;47.798;12.472;2023-06-05T08:08:28;18.66;76.98
72380;SHT30;60354;47.798;12.472;2023-06-05T08:10:55;18.97;77.06
72380;SHT30;60354;47.798;12.472;2023-06-05T08:13:21;19.04;77.29
72380;SHT30;60354;47.798;12.472;2023-06-05T08:15:46;19.08;76.17
72380;SHT30;60354;47.798;12.472;2023-06-05T08:18:14;19.04;75.69
72380;SHT30;60354;47.798;12.472;2023-06-05T08:20:40;18.97;76.60
72380;SHT30;60354;47.798;12.472;2023-06-05T08:23:05;19.04;76.28
72380;SHT30;60354;47.798;12.472;2023-06-05T08:25:31;18.80;76.97
72380;SHT30;60354;47.798;12.472;2023-06-05T08:27:56;18.90;77.63
72380;SHT30;60354;47.798;12.472;2023-06-05T08:30:22;18.87;77.63
72380;SHT30;60354;47.798;12.472;2023-06-05T08:32:47;19.15;77.18
72380;SHT30;60354;47.798;12.472;2023-06-05T08:35:13;18.96;77.24
72380;SHT30;60354;47.798;12.472;2023-06-05T08:37:39;18.90;76.89
72380;SHT30;60354;47.798;12.472;2023-06-05T08:40:05;18.90;76.99
72380;SHT30;60354;47.798;12.472;2023-06-05T08:42:36;19.04;76.71
72380;SHT30;60354;47.798;12.472;2023-06-05T08:45:06;19.14;78.05
72380;SHT30;60354;47.798;12.472;2023-06-05T08:47:36;18.97;77.41
72380;SHT30;60354;47.798;12.472;2023-06-05T08:50:04;18.96;76.96
72380;SHT30;60354;47.798;12.472;2023-06-05T08:52:32;18.77;77.99
72380;SHT30;60354;47.798;12.472;2023-06-05T08:54:58;18.61;78.33
72380;SHT30;60354;47.798;12.472;2023-06-05T08:57:24;18.56;78.33
72380;SHT30;60354;47.798;12.472;2023-06-05T08:59:49;18.64;79.13
72380;SHT30;60354;47.798;12.472;2023-06-05T09:02:16;18.73;78.35
72380;SHT30;60354;47.798;12.472;2023-06-05T09:04:41;18.68;78.90
72380;SHT30;60354;47.798;12.472;2023-06-05T09:07:06;18.42;78.83
72380;SHT30;60354;47.798;12.472;2023-06-05T09:09:33;18.40;79.32
72380;SHT30;60354;47.798;12.472;2023-06-05T09:12:06;18.47;79.12
72380;SHT30;60354;47.798;12.472;2023-06-05T09:14:32;18.37;79.44
72380;SHT30;60354;47.798;12.472;2023-06-05T09:17:02;18.26;79.45
72380;SHT30;60354;47.798;12.472;2023-06-05T09:19:41;18.35;79.88
72380;SHT30;60354;47.798;12.472;2023-06-05T09:22:09;18.40;79.09
72380;SHT30;60354;47.798;12.472;2023-06-05T09:24:36;18.64;76.01
72380;SHT30;60354;47.798;12.472;2023-06-05T09:27:08;18.50;78.73
72380;SHT30;60354;47.798;12.472;2023-06-05T09:29:39;18.52;78.80
72380;SHT30;60354;47.798;12.472;2023-06-05T09:32:18;18.61;77.77
72380;SHT30;60354;47.798;12.472;2023-06-05T09:34:44;18.57;77.68
72380;SHT30;60354;47.798;12.472;2023-06-05T09:37:12;18.47;78.04
72380;SHT30;60354;47.798;12.472;2023-06-05T09:39:39;18.42;79.38
72380;SHT30;60354;47.798;12.472;2023-06-05T09:42:05;18.29;81.73
72380;SHT30;60354;47.798;12.472;2023-06-05T09:44:32;18.36;81.73
72380;SHT30;60354;47.798;12.472;2023-06-05T09:47:05;18.35;83.54
72380;SHT30;60354;47.798;12.472;2023-06-05T09:52:03;18.33;81.09
72380;SHT30;60354;47.798;12.472;2023-06-05T09:54:30;18.16;82.24
72380;SHT30;60354;47.798;12.472;2023-06-05T09:57:01;18.12;83.70
72380;SHT30;60354;47.798;12.472;2023-06-05T09:59:31;18.13;83.17
72380;SHT30;60354;47.798;12.472;2023-06-05T10:02:00;18.15;84.65
72380;SHT30;60354;47.798;12.472;2023-06-05T10:04:27;18.28;83.69
72380;SHT30;60354;47.798;12.472;2023-06-05T10:06:57;18.21;83.05
72380;SHT30;60354;47.798;12.472;2023-06-05T10:09:24;18.15;82.52
72380;SHT30;60354;47.798;12.472;2023-06-05T10:11:50;18.18;85.21
72380;SHT30;60354;47.798;12.472;2023-06-05T10:14:16;18.32;84.37
72380;SHT30;60354;47.798;12.472;2023-06-05T10:16:42;18.16;84.62
72380;SHT30;60354;47.798;12.472;2023-06-05T10:19:08;18.12;83.87
72380;SHT30;60354;47.798;12.472;2023-06-05T10:21:34;18.10;84.47
72380;SHT30;60354;47.798;12.472;2023-06-05T10:24:07;18.08;83.12
72380;SHT30;60354;47.798;12.472;2023-06-05T10:38:27;18.39;85.41
72380;SHT30;60354;47.798;12.472;2023-06-05T10:40:54;18.42;84.76
72380;SHT30;60354;47.798;12.472;2023-06-05T10:46:00;18.60;83.76
72380;SHT30;60354;47.798;12.472;2023-06-05T10:51:40;18.78;84.14
72380;SHT30;60354;47.798;12.472;2023-06-05T10:54:10;18.66;84.42
72380;SHT30;60354;47.798;12.472;2023-06-05T11:10:17;18.74;86.11
72380;SHT30;60354;47.798;12.472;2023-06-05T11:15:15;18.61;85.56
72380;SHT30;60354;47.798;12.472;2023-06-05T11:17:45;18.63;86.06
72380;SHT30;60354;47.798;12.472;2023-06-05T11:28:05;18.71;86.89
72380;SHT30;60354;47.798;12.472;2023-06-05T11:30:44;18.73;86.59
72380;SHT30;60354;47.798;12.472;2023-06-05T11:33:11;18.73;84.72
72380;SHT30;60354;47.798;12.472;2023-06-05T11:35:43;18.59;84.75
72380;SHT30;60354;47.798;12.472;2023-06-05T11:38:17;18.78;84.38
72380;SHT30;60354;47.798;12.472;2023-06-05T11:40:44;18.81;86.00
72380;SHT30;60354;47.798;12.472;2023-06-05T11:43:11;18.71;85.40
72380;SHT30;60354;47.798;12.472;2023-06-05T11:45:38;18.77;85.82
72380;SHT30;60354;47.798;12.472;2023-06-05T11:50:30;18.87;84.37
72380;SHT30;60354;47.798;12.472;2023-06-05T11:53:06;18.80;85.36
72380;SHT30;60354;47.798;12.472;2023-06-05T11:55:32;18.80;87.10
72380;SHT30;60354;47.798;12.472;2023-06-05T11:58:10;18.71;86.18
72380;SHT30;60354;47.798;12.472;2023-06-05T12:00:36;18.42;85.02
72380;SHT30;60354;47.798;12.472;2023-06-05T12:03:01;18.56;87.67
72380;SHT30;60354;47.798;12.472;2023-06-05T12:05:27;18.67;85.57
72380;SHT30;60354;47.798;12.472;2023-06-05T12:07:52;18.61;87.34
72380;SHT30;60354;47.798;12.472;2023-06-05T12:10:18;18.61;85.94
72380;SHT30;60354;47.798;12.472;2023-06-05T12:12:52;18.78;84.66
72380;SHT30;60354;47.798;12.472;2023-06-05T12:15:19;18.93;85.54
72380;SHT30;60354;47.798;12.472;2023-06-05T12:17:57;18.74;84.30
72380;SHT30;60354;47.798;12.472;2023-06-05T12:20:26;18.91;85.97
72380;SHT30;60354;47.798;12.472;2023-06-05T12:23:03;18.94;85.44
72380;SHT30;60354;47.798;12.472;2023-06-05T12:25:29;18.93;84.05
72380;SHT30;60354;47.798;12.472;2023-06-05T12:27:54;19.03;83.50
72380;SHT30;60354;47.798;12.472;2023-06-05T12:30:20;19.08;83.89
72380;SHT30;60354;47.798;12.472;2023-06-05T12:32:47;19.04;84.18
72380;SHT30;60354;47.798;12.472;2023-06-05T12:35:20;18.94;83.47
72380;SHT30;60354;47.798;12.472;2023-06-05T12:37:47;18.74;81.97
72380;SHT30;60354;47.798;12.472;2023-06-05T12:40:13;18.68;83.25
72380;SHT30;60354;47.798;12.472;2023-06-05T12:42:40;18.80;82.55
72380;SHT30;60354;47.798;12.472;2023-06-05T12:45:10;18.73;83.08
72380;SHT30;60354;47.798;12.472;2023-06-05T12:47:37;18.56;83.58
72380;SHT30;60354;47.798;12.472;2023-06-05T12:50:04;18.52;85.55
72380;SHT30;60354;47.798;12.472;2023-06-05T12:52:31;18.59;86.15
72380;SHT30;60354;47.798;12.472;2023-06-05T12:54:57;18.80;84.19
72380;SHT30;60354;47.798;12.472;2023-06-05T12:57:23;18.64;83.28
72380;SHT30;60354;47.798;12.472;2023-06-05T12:59:49;18.70;85.21
72380;SHT30;60354;47.798;12.472;2023-06-05T13:02:15;18.70;84.19
72380;SHT30;60354;47.798;12.472;2023-06-05T13:04:41;18.67;85.60
72380;SHT30;60354;47.798;12.472;2023-06-05T13:07:07;18.59;83.54
72380;SHT30;60354;47.798;12.472;2023-06-05T13:09:34;18.56;84.88
72380;SHT30;60354;47.798;12.472;2023-06-05T13:12:00;18.66;86.36
72380;SHT30;60354;47.798;12.472;2023-06-05T13:14:27;18.56;85.01
72380;SHT30;60354;47.798;12.472;2023-06-05T13:16:52;18.67;86.10
72380;SHT30;60354;47.798;12.472;2023-06-05T13:19:18;18.73;84.95
72380;SHT30;60354;47.798;12.472;2023-06-05T13:21:43;18.71;85.58
72380;SHT30;60354;47.798;12.472;2023-06-05T13:24:09;18.67;84.99
72380;SHT30;60354;47.798;12.472;2023-06-05T13:26:34;18.61;85.18
72380;SHT30;60354;47.798;12.472;2023-06-05T13:29:00;18.60;86.01
72380;SHT30;60354;47.798;12.472;2023-06-05T13:31:25;18.45;85.99
72380;SHT30;60354;47.798;12.472;2023-06-05T13:33:51;18.32;86.49
72380;SHT30;60354;47.798;12.472;2023-06-05T13:36:16;18.26;86.57
72380;SHT30;60354;47.798;12.472;2023-06-05T13:38:42;18.08;87.50
72380;SHT30;60354;47.798;12.472;2023-06-05T13:41:08;18.09;88.09
72380;SHT30;60354;47.798;12.472;2023-06-05T13:43:34;17.95;87.47
72380;SHT30;60354;47.798;12.472;2023-06-05T13:46:02;17.73;87.01
72380;SHT30;60354;47.798;12.472;2023-06-05T13:48:29;17.46;88.30
72380;SHT30;60354;47.798;12.472;2023-06-05T13:50:55;17.26;89.46
72380;SHT30;60354;47.798;12.472;2023-06-05T13:53:21;17.33;89.24
72380;SHT30;60354;47.798;12.472;2023-06-05T13:55:47;17.24;89.17
72380;SHT30;60354;47.798;12.472;2023-06-05T13:58:12;17.10;89.03
72380;SHT30;60354;47.798;12.472;2023-06-05T14:00:38;17.17;89.50
72380;SHT30;60354;47.798;12.472;2023-06-05T14:03:03;17.17;89.91
72380;SHT30;60354;47.798;12.472;2023-06-05T14:05:30;17.16;89.01
72380;SHT30;60354;47.798;12.472;2023-06-05T14:07:56;17.22;90.14
72380;SHT30;60354;47.798;12.472;2023-06-05T14:10:23;17.02;90.79
72380;SHT30;60354;47.798;12.472;2023-06-05T14:12:50;17.16;91.35
72380;SHT30;60354;47.798;12.472;2023-06-05T14:15:17;17.10;90.03
72380;SHT30;60354;47.798;12.472;2023-06-05T14:17:44;17.07;91.17
72380;SHT30;60354;47.798;12.472;2023-06-05T14:20:10;17.03;91.22
72380;SHT30;60354;47.798;12.472;2023-06-05T14:22:36;17.07;91.41
72380;SHT30;60354;47.798;12.472;2023-06-05T14:25:02;17.13;91.14
72380;SHT30;60354;47.798;12.472;2023-06-05T14:27:28;17.13;91.38
72380;SHT30;60354;47.798;12.472;2023-06-05T14:29:53;17.00;90.54
72380;SHT30;60354;47.798;12.472;2023-06-05T14:32:19;17.03;92.16
72380;SHT30;60354;47.798;12.472;2023-06-05T14:34:45;16.96;91.47
72380;SHT30;60354;47.798;12.472;2023-06-05T14:37:11;17.00;91.64
72380;SHT30;60354;47.798;12.472;2023-06-05T14:39:36;16.89;90.93
72380;SHT30;60354;47.798;12.472;2023-06-05T14:42:02;16.93;91.13
72380;SHT30;60354;47.798;12.472;2023-06-05T14:44:28;17.00;90.34
72380;SHT30;60354;47.798;12.472;2023-06-05T14:46:54;17.03;90.37
72380;SHT30;60354;47.798;12.472;2023-06-05T14:49:26;17.10;90.85
72380;SHT30;60354;47.798;12.472;2023-06-05T14:51:51;17.19;91.14
72380;SHT30;60354;47.798;12.472;2023-06-05T14:54:17;17.28;90.63
72380;SHT30;60354;47.798;12.472;2023-06-05T14:56:43;17.22;91.44
72380;SHT30;60354;47.798;12.472;2023-06-05T14:59:09;17.31;90.20
72380;SHT30;60354;47.798;12.472;2023-06-05T15:01:34;17.24;90.91
72380;SHT30;60354;47.798;12.472;2023-06-05T15:04:00;17.28;89.88
72380;SHT30;60354;47.798;12.472;2023-06-05T15:06:25;17.41;90.48
72380;SHT30;60354;47.798;12.472;2023-06-05T15:08:51;17.46;89.55
72380;SHT30;60354;47.798;12.472;2023-06-05T15:11:18;17.44;88.36
72380;SHT30;60354;47.798;12.472;2023-06-05T15:13:44;17.46;90.19
72380;SHT30;60354;47.798;12.472;2023-06-05T15:16:09;17.41;90.12
72380;SHT30;60354;47.798;12.472;2023-06-05T15:18:35;17.46;90.02
72380;SHT30;60354;47.798;12.472;2023-06-05T15:21:01;17.37;90.65
72380;SHT30;60354;47.798;12.472;2023-06-05T15:23:26;17.41;90.88
72380;SHT30;60354;47.798;12.472;2023-06-05T15:25:51;17.54;90.03
72380;SHT30;60354;47.798;12.472;2023-06-05T15:28:17;17.54;89.70
72380;SHT30;60354;47.798;12.472;2023-06-05T15:30:43;17.66;90.21
72380;SHT30;60354;47.798;12.472;2023-06-05T15:33:09;17.75;90.09
72380;SHT30;60354;47.798;12.472;2023-06-05T15:35:35;17.82;89.79
72380;SHT30;60354;47.798;12.472;2023-06-05T15:38:00;17.77;88.23
72380;SHT30;60354;47.798;12.472;2023-06-05T15:40:26;17.66;87.58
72380;SHT30;60354;47.798;12.472;2023-06-05T15:43:08;17.74;88.84
72380;SHT30;60354;47.798;12.472;2023-06-05T15:45:38;17.88;89.60
72380;SHT30;60354;47.798;12.472;2023-06-05T15:48:04;17.92;89.93
72380;SHT30;60354;47.798;12.472;2023-06-05T15:50:30;17.88;90.24
72380;SHT30;60354;47.798;12.472;2023-06-05T15:52:56;17.89;89.70
72380;SHT30;60354;47.798;12.472;2023-06-05T15:55:21;17.97;89.31
72380;SHT30;60354;47.798;12.472;2023-06-05T15:57:47;18.06;88.64
72380;SHT30;60354;47.798;12.472;2023-06-05T16:00:17;18.18;88.23
72380;SHT30;60354;47.798;12.472;2023-06-05T16:02:44;18.13;88.20
72380;SHT30;60354;47.798;12.472;2023-06-05T16:05:10;18.02;86.30
72380;SHT30;60354;47.798;12.472;2023-06-05T16:07:35;18.05;88.46